EHBK Airport Information

Runway Information
Runway 03 Length 8202 ft width 148 ft
Elevation 365 ft Threshold 820 ft Heading 33
Runway 21 Length 8202 ft Width 148 ft
Elevation 370 ft Threshold 820 ft Heading 213
Airport Frequencies
Type APP Name BEEK APP Frequency 120.2 MHZ
Type ATIS Name ATIS Frequency 124.575 MHZ
Type GND Name BEEK GND Frequency 121.825 MHZ
Type TWR Name BEEK TWR Frequency 119.475 MHZ
Airport Navaids
Type VOR-DME Name Maastricht Frequency 108600 KHZ
Type NDB Name Maastricht Frequency 373 KHZ
Airport Weather Information & NOTAM
ADDS - METARS form results

(1441 UTC 20 April 2021)
Data provider http://aviationweather.gov/metar/data/
 
METAR text: EHBK 201425Z AUTO 03004KT 280V090 9999 NSC 15/04 Q1016 NOSIG
Conditions at: EHBK (ZUID-LIMBURG/BEE, NL) observed 1425 UTC 20 April 2021
Temperature: 15.0°C (59°F)
Dewpoint: 4.0°C (39°F) [RH = 48%]
Pressure (altimeter): 30.00 inches Hg (1016.0 mb)
Winds: from the NNE (30 degrees) at 5 MPH (4 knots; 2.1 m/s)
Visibility: 6 or more miles (10+ km)
Ceiling: at least 12,000 feet AGL
Clouds: sky clear below 12,000 feet AGL
Weather: no significant weather observed at this time

METAR text: EHBK 201355Z AUTO 36004KT 320V070 9999 FEW049 15/06 Q1016 REDZ NOSIG
Conditions at: EHBK (ZUID-LIMBURG/BEE, NL) observed 1355 UTC 20 April 2021
Temperature: 15.0°C (59°F)
Dewpoint: 6.0°C (43°F) [RH = 55%]
Pressure (altimeter): 30.00 inches Hg (1016.0 mb)
Winds: from the N (360 degrees) at 5 MPH (4 knots; 2.1 m/s)
Visibility: 6 or more miles (10+ km)
Ceiling: at least 12,000 feet AGL
Clouds: few clouds at 4900 feet AGL
Weather: no significant weather observed at this time

Forecast for: EHBK (ZUID-LIMBURG/BEE, NL)
Text: TAF EHBK 201113Z 2012/2118 VRB03KT 9999 SCT045
Forecast period: 1200 UTC 20 April 2021 to 1500 UTC 21 April 2021
Forecast type: FROM: standard forecast or significant change
Winds: variable direction winds at 3 MPH (3 knots; 1.5 m/s)
Visibility: 6 or more miles (10+ km)
Ceiling: at least 12,000 feet AGL
Clouds: scattered clouds at 4500 feet AGL
Weather: no significant weather forecast for this period
Text: PROB30
Forecast period: 0200 to 0700 UTC 21 April 2021
Forecast type: TEMPORARY: The following changes expected for less than half the time period
Visibility: 1.24 miles (2.00 km)
Ceiling: unknown
Clouds: missing
Weather: BR MIFG  (mist, shallow fog)
Text: TEMPO 2102/2107 2000 BR MIFG
Forecast period: 1500 to 1800 UTC 21 April 2021
Forecast type: BECOMING: Conditions expected to become as follows by 1800 UTC 21 April 2021
Winds: from the N (10 degrees) at 12 MPH (10 knots; 5.1 m/s)
Visibility: 6 or more miles (10+ km)
Ceiling: at least 12,000 feet AGL
Clouds: scattered clouds at 4500 feet AGL
Weather: no significant weather forecast for this period